createdAt,value
2019-03-30T00:02:17.448Z,4.99
2019-03-30T00:04:47.172Z,4.73
2019-03-30T00:07:16.782Z,4.73
2019-03-30T00:09:46.572Z,4.65
2019-03-30T00:12:16.174Z,4.52
2019-03-30T00:14:46.053Z,4.45
2019-03-30T00:17:15.670Z,4.42
2019-03-30T00:19:49.704Z,4.41
2019-03-30T00:22:19.436Z,4.29
2019-03-30T00:24:49.274Z,4.32
2019-03-30T00:27:18.887Z,4.34
2019-03-30T00:29:49.831Z,4.28
2019-03-30T00:32:21.778Z,4.19
2019-03-30T00:34:52.624Z,4.20
2019-03-30T00:37:22.313Z,4.18
2019-03-30T00:39:52.093Z,4.18
2019-03-30T00:42:21.758Z,4.15
2019-03-30T00:44:53.794Z,4.18
2019-03-30T00:47:23.420Z,4.15
2019-03-30T00:49:53.216Z,4.11
2019-03-30T00:52:22.879Z,4.07
2019-03-30T00:54:53.899Z,4.11
2019-03-30T00:57:23.599Z,4.04
2019-03-30T00:59:55.333Z,3.99
2019-03-30T01:02:25.133Z,3.90
2019-03-30T01:04:58.031Z,3.78
2019-03-30T01:07:27.688Z,3.77
2019-03-30T01:09:57.350Z,3.81
2019-03-30T01:12:27.077Z,3.78
2019-03-30T01:14:57.952Z,3.71
2019-03-30T01:17:29.274Z,3.70
2019-03-30T01:20:02.987Z,3.80
2019-03-30T01:22:35.301Z,3.79
2019-03-30T01:25:07.236Z,3.75
2019-03-30T01:27:37.023Z,3.69
2019-03-30T01:30:22.433Z,3.73
2019-03-30T01:32:45.229Z,3.67
2019-03-30T01:35:18.140Z,3.68
2019-03-30T01:37:48.174Z,3.55
2019-03-30T01:40:18.125Z,3.53
2019-03-30T01:42:48.324Z,3.41
2019-03-30T01:45:20.042Z,3.39
2019-03-30T01:47:49.888Z,3.44
2019-03-30T01:50:19.798Z,3.43
2019-03-30T01:52:49.508Z,3.48
2019-03-30T01:55:21.859Z,3.37
2019-03-30T01:57:51.862Z,3.34
2019-03-30T02:00:22.172Z,3.35
2019-03-30T02:02:52.145Z,3.36
2019-03-30T02:05:23.496Z,3.38
2019-03-30T02:07:53.685Z,3.31
2019-03-30T02:10:40.273Z,3.24
2019-03-30T02:13:10.084Z,3.29
2019-03-30T02:15:41.725Z,3.32
2019-03-30T02:18:11.725Z,3.29
2019-03-30T02:20:42.790Z,3.24
2019-03-30T02:23:12.789Z,3.15
2019-03-30T02:25:44.235Z,3.13
2019-03-30T02:28:13.940Z,3.10
2019-03-30T02:30:43.768Z,2.99
2019-03-30T02:33:13.868Z,3.05
2019-03-30T02:35:43.833Z,2.97
2019-03-30T02:38:15.715Z,2.97
2019-03-30T02:40:45.618Z,2.86
2019-03-30T02:43:15.354Z,2.66
2019-03-30T02:45:46.479Z,2.66
2019-03-30T02:48:18.304Z,2.57
2019-03-30T02:50:50.398Z,2.81
2019-03-30T02:53:19.521Z,3.03
2019-03-30T02:55:50.881Z,2.99
2019-03-30T02:58:20.776Z,2.97
2019-03-30T03:00:50.649Z,2.86
2019-03-30T03:03:20.892Z,3.06
2019-03-30T03:05:52.258Z,2.96
2019-03-30T03:08:22.466Z,2.79
2019-03-30T03:10:53.074Z,2.43
2019-03-30T03:13:22.753Z,2.81
2019-03-30T03:15:54.044Z,2.83
2019-03-30T03:18:23.896Z,2.77
2019-03-30T03:21:07.555Z,2.92
2019-03-30T03:23:25.513Z,2.86
2019-03-30T03:25:56.708Z,2.55
2019-03-30T03:28:26.394Z,2.44
2019-03-30T03:30:56.143Z,2.55
2019-03-30T03:33:26.098Z,2.61
2019-03-30T03:35:56.429Z,2.53
2019-03-30T03:38:26.191Z,2.63
2019-03-30T03:40:55.917Z,2.57
2019-03-30T03:43:25.746Z,2.62
2019-03-30T03:45:55.351Z,2.56
2019-03-30T03:48:24.919Z,2.53
2019-03-30T03:50:59.567Z,2.48
2019-03-30T03:53:29.493Z,2.39
2019-03-30T03:55:59.990Z,2.53
2019-03-30T03:58:32.898Z,2.50
2019-03-30T04:01:03.268Z,2.43
2019-03-30T04:03:33.713Z,2.36
2019-03-30T04:06:06.403Z,2.03
2019-03-30T04:08:36.633Z,2.30
2019-03-30T04:11:06.277Z,2.38
2019-03-30T04:13:35.954Z,2.51
2019-03-30T04:16:06.802Z,2.58
2019-03-30T04:18:37.492Z,2.58
2019-03-30T04:21:07.162Z,2.52
2019-03-30T04:23:39.020Z,2.54
2019-03-30T04:26:09.676Z,2.38
2019-03-30T04:28:39.697Z,2.38
2019-03-30T04:31:09.312Z,2.34
2019-03-30T04:33:38.882Z,2.29
2019-03-30T04:36:08.570Z,2.30
2019-03-30T04:38:39.409Z,2.15
2019-03-30T04:41:09.009Z,2.26
2019-03-30T04:43:38.658Z,2.16
2019-03-30T04:46:08.259Z,2.15
2019-03-30T04:48:37.916Z,2.21
2019-03-30T04:51:07.570Z,2.21
2019-03-30T04:53:37.193Z,2.20
2019-03-30T04:56:06.884Z,2.26
2019-03-30T04:58:36.451Z,2.19
2019-03-30T05:01:06.070Z,2.16
2019-03-30T05:03:36.943Z,2.17
2019-03-30T05:06:06.595Z,2.09
2019-03-30T05:08:36.200Z,2.05
2019-03-30T05:11:05.831Z,2.06
2019-03-30T05:13:35.412Z,2.06
2019-03-30T05:16:05.059Z,2.18
2019-03-30T05:18:36.032Z,2.26
2019-03-30T05:21:05.676Z,2.27
2019-03-30T05:23:35.218Z,2.31
2019-03-30T05:26:04.929Z,2.37
2019-03-30T05:28:35.431Z,2.39
2019-03-30T05:31:05.058Z,2.40
2019-03-30T05:33:34.792Z,2.33
2019-03-30T05:36:04.481Z,2.32
2019-03-30T05:38:36.424Z,2.39
2019-03-30T05:41:07.265Z,2.43
2019-03-30T05:43:38.670Z,2.45
2019-03-30T05:46:08.359Z,2.45
2019-03-30T05:48:38.246Z,2.54
2019-03-30T05:51:07.926Z,2.59
2019-03-30T05:53:38.102Z,2.57
2019-03-30T05:56:07.737Z,2.37
2019-03-30T05:58:37.336Z,2.28
2019-03-30T06:01:08.435Z,2.66
2019-03-30T06:03:42.883Z,2.96
2019-03-30T06:06:12.599Z,3.15
2019-03-30T06:08:42.252Z,2.87
2019-03-30T06:11:11.874Z,2.99
2019-03-30T06:13:42.826Z,3.21
2019-03-30T06:16:13.999Z,3.46
2019-03-30T06:18:43.683Z,3.41
2019-03-30T06:21:13.384Z,3.96
2019-03-30T06:23:44.490Z,4.22
2019-03-30T06:26:16.383Z,4.54
2019-03-30T06:28:47.237Z,4.60
2019-03-30T06:31:16.892Z,4.07
2019-03-30T06:33:47.922Z,3.76
2019-03-30T06:36:19.581Z,3.87
2019-03-30T06:38:49.219Z,4.20
2019-03-30T06:41:21.354Z,4.45
2019-03-30T06:43:58.240Z,4.41
2019-03-30T06:46:28.041Z,4.63
2019-03-30T06:48:57.832Z,4.93
2019-03-30T06:51:28.981Z,4.80
2019-03-30T06:53:58.899Z,4.92
2019-03-30T06:56:28.562Z,5.69
2019-03-30T06:58:58.406Z,6.71
2019-03-30T07:01:28.512Z,7.40
2019-03-30T07:03:58.348Z,6.62
2019-03-30T07:06:28.520Z,7.06
2019-03-30T07:08:58.308Z,7.61
2019-03-30T07:11:29.046Z,7.38
2019-03-30T07:13:59.986Z,7.55
2019-03-30T07:16:30.222Z,7.65
2019-03-30T07:19:02.056Z,7.93
2019-03-30T07:21:31.851Z,8.81
2019-03-30T07:24:03.053Z,8.90
2019-03-30T07:26:35.345Z,9.77
2019-03-30T07:29:05.130Z,9.33
2019-03-30T07:31:34.947Z,9.69
2019-03-30T07:34:06.024Z,10.35
2019-03-30T07:36:35.662Z,9.60
2019-03-30T07:39:05.642Z,9.66
2019-03-30T07:41:35.283Z,10.03
2019-03-30T07:44:06.496Z,10.76
2019-03-30T07:46:36.087Z,10.95
2019-03-30T07:49:05.655Z,11.50
2019-03-30T07:51:53.069Z,11.43
2019-03-30T07:54:23.081Z,11.97
2019-03-30T07:57:04.278Z,13.15
2019-03-30T07:59:24.251Z,12.68
2019-03-30T08:01:55.332Z,14.02
2019-03-30T08:04:28.706Z,13.25
2019-03-30T08:06:57.698Z,13.33
2019-03-30T08:09:27.325Z,14.36
2019-03-30T08:11:58.181Z,13.77
2019-03-30T08:14:28.909Z,14.02
2019-03-30T08:16:58.659Z,15.30
2019-03-30T08:19:28.250Z,14.33
2019-03-30T08:21:57.963Z,14.70
2019-03-30T08:24:27.708Z,15.70
2019-03-30T08:26:57.391Z,15.74
2019-03-30T08:29:27.090Z,15.09
2019-03-30T08:31:56.882Z,15.30
2019-03-30T08:34:26.465Z,15.85
2019-03-30T08:36:59.169Z,16.17
2019-03-30T08:39:27.404Z,16.24
2019-03-30T08:41:57.124Z,16.69
2019-03-30T08:44:26.660Z,17.22
2019-03-30T08:46:56.321Z,17.23
2019-03-30T08:49:26.255Z,16.80
2019-03-30T08:51:55.966Z,17.21
2019-03-30T08:54:25.830Z,16.68
2019-03-30T08:56:55.498Z,17.07
2019-03-30T08:59:29.195Z,17.94
2019-03-30T09:02:01.984Z,17.35
2019-03-30T09:04:33.358Z,17.84
2019-03-30T09:07:04.614Z,17.39
2019-03-30T09:09:34.371Z,18.30
2019-03-30T09:12:04.022Z,17.22
2019-03-30T09:14:36.096Z,18.06
2019-03-30T09:17:05.756Z,17.31
2019-03-30T09:19:35.328Z,17.67
2019-03-30T09:22:05.034Z,18.04
2019-03-30T09:24:36.364Z,17.15
2019-03-30T09:27:06.122Z,17.23
2019-03-30T09:29:35.753Z,17.76
2019-03-30T09:32:14.124Z,17.87
2019-03-30T09:34:39.412Z,18.89
2019-03-30T09:37:09.140Z,18.82
2019-03-30T09:39:38.756Z,18.27
2019-03-30T09:42:15.511Z,18.68
2019-03-30T09:44:45.592Z,19.06
2019-03-30T09:47:15.397Z,19.10
2019-03-30T09:49:46.116Z,19.23
2019-03-30T09:52:15.704Z,19.58
2019-03-30T09:54:45.742Z,19.95
2019-03-30T09:57:15.423Z,19.85
2019-03-30T09:59:47.408Z,20.00
2019-03-30T10:02:18.665Z,20.24
2019-03-30T10:04:49.342Z,20.23
2019-03-30T10:07:18.937Z,21.14
2019-03-30T10:09:48.537Z,20.71
2019-03-30T10:12:18.612Z,19.97
2019-03-30T10:14:49.830Z,20.28
2019-03-30T10:17:19.504Z,21.48
2019-03-30T10:20:03.617Z,21.49
2019-03-30T10:22:20.547Z,20.39
2019-03-30T10:24:51.295Z,21.74
2019-03-30T10:27:20.918Z,22.22
2019-03-30T10:29:50.523Z,21.65
2019-03-30T10:32:20.132Z,21.50
2019-03-30T10:34:49.703Z,21.81
2019-03-30T10:37:19.321Z,22.19
2019-03-30T10:39:48.956Z,22.75
2019-03-30T10:42:18.688Z,22.65
2019-03-30T10:44:50.600Z,23.34
2019-03-30T10:47:20.495Z,23.40
2019-03-30T10:49:50.055Z,22.96
2019-03-30T10:52:19.699Z,23.46
2019-03-30T10:54:52.989Z,21.30
2019-03-30T10:57:21.961Z,22.85
2019-03-30T10:59:51.815Z,23.30
2019-03-30T11:02:21.707Z,22.25
2019-03-30T11:04:53.055Z,23.02
2019-03-30T11:07:24.041Z,23.26
2019-03-30T11:09:53.712Z,23.40
2019-03-30T11:12:32.830Z,22.17
2019-03-30T11:15:02.682Z,23.19
2019-03-30T11:17:35.139Z,22.58
2019-03-30T11:20:07.582Z,22.58
2019-03-30T11:22:38.410Z,22.44
2019-03-30T11:25:10.446Z,22.67
2019-03-30T11:27:40.095Z,23.74
2019-03-30T11:30:09.745Z,23.74
2019-03-30T11:32:39.448Z,24.00
2019-03-30T11:35:10.746Z,22.79
2019-03-30T11:37:40.435Z,23.01
2019-03-30T11:40:10.181Z,22.27
2019-03-30T11:42:39.926Z,23.50
2019-03-30T11:45:11.587Z,22.04
2019-03-30T11:47:41.231Z,22.04
2019-03-30T11:50:10.878Z,22.72
2019-03-30T11:52:40.575Z,23.16
2019-03-30T11:55:21.065Z,23.16
2019-03-30T11:57:41.906Z,23.40
2019-03-30T12:00:11.614Z,22.98
2019-03-30T12:02:41.327Z,23.79
2019-03-30T12:05:12.655Z,23.78
2019-03-30T12:07:44.576Z,24.48
2019-03-30T12:10:14.200Z,22.69
2019-03-30T12:12:44.855Z,23.57
2019-03-30T12:15:14.528Z,23.88
2019-03-30T12:17:44.243Z,23.16
2019-03-30T12:20:13.897Z,23.87
2019-03-30T12:22:43.505Z,21.84
2019-03-30T12:25:15.199Z,22.28
2019-03-30T12:27:45.808Z,22.88
2019-03-30T12:30:15.481Z,22.96
2019-03-30T12:32:47.130Z,23.10
2019-03-30T12:35:21.410Z,23.79
2019-03-30T12:37:53.079Z,23.57
2019-03-30T12:40:22.635Z,23.23
2019-03-30T12:42:54.802Z,22.99
2019-03-30T12:45:25.741Z,23.20
2019-03-30T12:47:55.319Z,23.47
2019-03-30T12:50:28.242Z,23.38
2019-03-30T12:52:58.948Z,23.53
2019-03-30T12:55:28.576Z,22.63
2019-03-30T12:57:58.287Z,23.50
2019-03-30T13:00:27.897Z,22.25
2019-03-30T13:02:57.538Z,24.10
2019-03-30T13:05:27.159Z,23.18
2019-03-30T13:07:56.887Z,22.99
2019-03-30T13:10:26.485Z,24.10
2019-03-30T13:12:56.080Z,23.61
2019-03-30T13:15:25.728Z,20.85
2019-03-30T13:17:55.337Z,20.85
2019-03-30T13:20:25.024Z,21.47
2019-03-30T13:22:54.821Z,21.47
2019-03-30T13:25:25.740Z,21.40
2019-03-30T13:27:55.435Z,21.60
2019-03-30T13:30:25.102Z,21.14
2019-03-30T13:32:54.698Z,21.46
2019-03-30T13:35:24.500Z,21.27
2019-03-30T13:37:55.857Z,21.02
2019-03-30T13:40:25.497Z,21.57
2019-03-30T13:42:56.698Z,21.41
2019-03-30T13:45:27.753Z,20.81
2019-03-30T13:50:25.810Z,19.83
2019-03-30T13:52:55.419Z,19.85
2019-03-30T13:55:25.185Z,19.86
2019-03-30T13:57:54.841Z,19.57
2019-03-30T14:00:24.505Z,20.69
2019-03-30T14:02:55.279Z,20.77
2019-03-30T14:05:24.901Z,20.30
2019-03-30T14:07:54.567Z,20.82
2019-03-30T14:10:24.235Z,20.43
2019-03-30T14:12:53.928Z,20.24
2019-03-30T14:15:23.715Z,20.07
2019-03-30T14:17:55.072Z,20.38
2019-03-30T14:20:24.796Z,20.17
2019-03-30T14:22:58.141Z,19.76
2019-03-30T14:25:29.115Z,19.32
2019-03-30T14:27:58.750Z,19.59
2019-03-30T14:30:28.571Z,19.31
2019-03-30T14:32:58.155Z,19.06
2019-03-30T14:35:27.799Z,19.53
2019-03-30T14:37:57.484Z,19.80
2019-03-30T14:40:27.133Z,19.35
2019-03-30T14:42:59.988Z,19.36
2019-03-30T14:45:29.791Z,19.92
2019-03-30T14:47:59.402Z,19.74
2019-03-30T14:50:29.213Z,19.67
2019-03-30T14:52:59.456Z,19.47
2019-03-30T14:55:29.094Z,19.53
2019-03-30T14:57:58.922Z,19.82
2019-03-30T15:00:28.662Z,19.72
2019-03-30T15:02:58.388Z,19.72
2019-03-30T15:05:28.100Z,19.65
2019-03-30T15:07:57.867Z,19.49
2019-03-30T15:10:27.514Z,19.43
2019-03-30T15:12:57.165Z,19.54
2019-03-30T15:15:26.805Z,19.50
2019-03-30T15:17:56.421Z,19.16
2019-03-30T15:20:26.083Z,19.38
2019-03-30T15:22:55.648Z,19.45
2019-03-30T15:25:25.238Z,19.55
2019-03-30T15:27:57.191Z,19.53
2019-03-30T15:30:26.810Z,19.77
2019-03-30T15:32:56.454Z,19.87
2019-03-30T15:35:27.519Z,19.65
2019-03-30T15:37:57.135Z,19.74
2019-03-30T15:40:26.781Z,19.67
2019-03-30T15:42:56.741Z,19.62
2019-03-30T15:45:27.733Z,19.88
2019-03-30T15:47:59.209Z,19.66
2019-03-30T15:50:28.858Z,19.47
2019-03-30T15:52:58.564Z,19.44
2019-03-30T15:55:28.423Z,19.48
2019-03-30T15:57:57.999Z,19.65
2019-03-30T16:00:27.639Z,19.33
2019-03-30T16:02:57.337Z,19.47
2019-03-30T16:05:28.035Z,19.44
2019-03-30T16:07:57.772Z,19.47
2019-03-30T16:10:28.989Z,19.50
2019-03-30T16:12:58.757Z,19.38
2019-03-30T16:15:28.470Z,19.12
2019-03-30T16:17:58.045Z,19.02
2019-03-30T16:20:29.714Z,18.82
2019-03-30T16:22:59.576Z,18.95
2019-03-30T16:25:33.743Z,19.10
2019-03-30T16:28:03.327Z,18.75
2019-03-30T16:30:36.486Z,18.70
2019-03-30T16:33:06.075Z,18.58
2019-03-30T16:35:37.079Z,18.60
2019-03-30T16:38:06.761Z,18.67
2019-03-30T16:40:36.429Z,18.60
2019-03-30T16:43:08.691Z,18.37
2019-03-30T16:45:39.645Z,18.42
2019-03-30T16:48:09.279Z,18.63
2019-03-30T16:50:38.898Z,18.44
2019-03-30T16:53:08.631Z,18.44
2019-03-30T16:55:39.128Z,18.50
2019-03-30T16:58:08.904Z,18.52
2019-03-30T17:00:38.533Z,18.14
2019-03-30T17:03:08.261Z,18.26
2019-03-30T17:05:39.563Z,17.98
2019-03-30T17:08:09.212Z,17.83
2019-03-30T17:10:43.804Z,18.01
2019-03-30T17:13:15.711Z,17.84
2019-03-30T17:15:46.805Z,17.74
2019-03-30T17:18:16.525Z,17.70
2019-03-30T17:20:46.201Z,17.47
2019-03-30T17:23:15.940Z,17.34
2019-03-30T17:25:45.648Z,17.14
2019-03-30T17:28:16.104Z,16.96
2019-03-30T17:30:46.008Z,16.83
2019-03-30T17:33:15.669Z,16.53
2019-03-30T17:35:45.309Z,16.36
2019-03-30T17:38:17.182Z,16.07
2019-03-30T17:40:46.891Z,15.83
2019-03-30T17:43:16.573Z,15.61
2019-03-30T17:45:47.645Z,15.49
2019-03-30T17:48:19.644Z,15.36
2019-03-30T17:50:49.353Z,15.15
2019-03-30T17:53:19.119Z,14.87
2019-03-30T17:55:49.356Z,14.75
2019-03-30T17:58:19.196Z,14.52
2019-03-30T18:00:48.800Z,14.30
2019-03-30T18:03:18.426Z,14.04
2019-03-30T18:05:48.081Z,13.82
2019-03-30T18:08:17.701Z,13.71
2019-03-30T18:10:50.154Z,13.55
2019-03-30T18:13:19.822Z,13.39
2019-03-30T18:15:50.641Z,13.24
2019-03-30T18:18:20.243Z,13.04
2019-03-30T18:20:49.890Z,12.85
2019-03-30T18:23:19.605Z,12.77
2019-03-30T18:25:49.125Z,13.06
2019-03-30T18:28:27.047Z,12.89
2019-03-30T18:30:50.049Z,12.62
2019-03-30T18:33:19.695Z,12.39
2019-03-30T18:35:50.108Z,12.29
2019-03-30T18:38:19.730Z,12.24
2019-03-30T18:40:49.795Z,12.08
2019-03-30T18:43:19.442Z,11.83
2019-03-30T18:45:48.989Z,11.75
2019-03-30T18:48:19.508Z,11.76
2019-03-30T18:50:49.233Z,12.07
2019-03-30T18:53:19.275Z,11.80
2019-03-30T18:55:48.927Z,11.56
2019-03-30T18:58:18.956Z,11.40
2019-03-30T19:00:49.244Z,11.35
2019-03-30T19:03:20.296Z,11.16
2019-03-30T19:05:51.583Z,10.98
2019-03-30T19:08:21.370Z,10.91
2019-03-30T19:10:51.717Z,10.84
2019-03-30T19:13:23.864Z,10.78
2019-03-30T19:15:58.705Z,10.75
2019-03-30T19:18:28.515Z,10.61
2019-03-30T19:20:58.186Z,10.41
2019-03-30T19:23:28.688Z,10.37
2019-03-30T19:26:00.157Z,10.29
2019-03-30T19:28:30.553Z,9.95
2019-03-30T19:31:02.351Z,10.06
2019-03-30T19:33:33.572Z,10.06
2019-03-30T19:36:04.383Z,9.97
2019-03-30T19:38:35.574Z,9.88
2019-03-30T19:41:05.420Z,9.78
2019-03-30T19:43:35.086Z,9.68
2019-03-30T19:46:08.016Z,9.56
2019-03-30T19:48:38.194Z,9.60
2019-03-30T19:51:10.422Z,9.54
2019-03-30T19:53:40.306Z,9.50
2019-03-30T19:56:11.037Z,9.48
2019-03-30T19:58:40.739Z,9.38
2019-03-30T20:01:10.366Z,9.27
2019-03-30T20:03:41.538Z,9.15
2019-03-30T20:06:13.987Z,9.00
2019-03-30T20:08:43.634Z,8.91
2019-03-30T20:11:13.310Z,9.01
2019-03-30T20:13:44.729Z,8.98
2019-03-30T20:16:16.983Z,8.86
2019-03-30T20:18:46.621Z,8.72
2019-03-30T20:21:16.564Z,8.78
2019-03-30T20:23:46.310Z,8.76
2019-03-30T20:26:17.048Z,8.75
2019-03-30T20:28:47.025Z,8.74
2019-03-30T20:31:16.877Z,8.70
2019-03-30T20:33:46.659Z,8.60
2019-03-30T20:36:18.234Z,8.45
2019-03-30T20:38:47.928Z,8.33
2019-03-30T20:41:17.860Z,8.25
2019-03-30T20:43:49.073Z,8.20
2019-03-30T20:46:21.726Z,8.12
2019-03-30T20:48:51.793Z,8.10
2019-03-30T20:51:23.602Z,8.10
2019-03-30T20:53:53.732Z,8.04
2019-03-30T20:56:25.082Z,7.96
2019-03-30T20:58:55.230Z,7.97
2019-03-30T21:01:24.925Z,7.85
2019-03-30T21:03:56.274Z,7.76
2019-03-30T21:06:27.252Z,7.81
2019-03-30T21:08:56.874Z,7.74
2019-03-30T21:11:26.549Z,7.73
2019-03-30T21:13:56.882Z,7.64
2019-03-30T21:16:26.796Z,7.62
2019-03-30T21:19:00.590Z,7.57
2019-03-30T21:21:31.047Z,7.52
2019-03-30T21:24:00.856Z,7.25
2019-03-30T21:26:31.734Z,7.32
2019-03-30T21:29:01.584Z,7.30
2019-03-30T21:31:31.433Z,7.25
2019-03-30T21:34:01.189Z,7.19
2019-03-30T21:36:32.372Z,7.21
2019-03-30T21:39:02.415Z,7.18
2019-03-30T21:41:32.511Z,7.08
2019-03-30T21:44:02.167Z,7.00
2019-03-30T21:46:34.312Z,6.88
2019-03-30T21:49:04.038Z,6.86
2019-03-30T21:51:34.955Z,6.79
2019-03-30T21:54:04.557Z,6.84
2019-03-30T21:56:34.285Z,6.79
2019-03-30T21:59:03.854Z,6.75
2019-03-30T22:01:33.894Z,6.76
2019-03-30T22:04:03.462Z,6.79
2019-03-30T22:06:33.167Z,6.69
2019-03-30T22:09:02.784Z,6.74
2019-03-30T22:11:35.612Z,6.70
2019-03-30T22:14:05.226Z,6.68
2019-03-30T22:16:34.894Z,6.67
2019-03-30T22:19:04.527Z,6.67
2019-03-30T22:21:34.240Z,6.67
2019-03-30T22:24:03.879Z,6.70
2019-03-30T22:26:35.014Z,6.65
2019-03-30T22:29:04.647Z,6.60
2019-03-30T22:31:34.685Z,6.54
2019-03-30T22:34:04.236Z,6.49
2019-03-30T22:36:35.505Z,6.34
2019-03-30T22:39:06.587Z,6.25
2019-03-30T22:41:36.153Z,6.18
2019-03-30T22:44:05.802Z,6.10
2019-03-30T22:46:35.512Z,6.01
2019-03-30T22:49:05.089Z,5.97
2019-03-30T22:51:34.686Z,5.88
2019-03-30T22:54:04.398Z,5.87
2019-03-30T22:56:35.459Z,5.87
2019-03-30T22:59:05.022Z,5.84
2019-03-30T23:01:35.691Z,5.85
2019-03-30T23:04:06.675Z,5.76
2019-03-30T23:06:36.663Z,5.66
2019-03-30T23:09:11.135Z,5.64
2019-03-30T23:11:38.807Z,5.61
2019-03-30T23:14:09.851Z,5.61
2019-03-30T23:16:39.494Z,5.58
2019-03-30T23:19:09.163Z,5.53
2019-03-30T23:21:38.964Z,5.50
2019-03-30T23:24:08.591Z,5.42
2019-03-30T23:26:38.207Z,5.47
2019-03-30T23:29:07.824Z,5.53
2019-03-30T23:31:37.441Z,5.26
2019-03-30T23:34:07.351Z,5.45
2019-03-30T23:36:36.914Z,5.54
2019-03-30T23:39:08.174Z,5.51
2019-03-30T23:41:37.882Z,5.32
2019-03-30T23:44:07.500Z,5.18
2019-03-30T23:46:37.132Z,5.14
2019-03-30T23:49:06.813Z,5.11
2019-03-30T23:51:36.473Z,5.05
2019-03-30T23:54:06.646Z,4.99
2019-03-30T23:56:36.383Z,4.97
2019-03-30T23:59:05.950Z,4.97
